sensor_id;sensor_type;location;lat;lon;timestamp;temperature;humidity
23079;DHT22;11707;50.830;4.364;2022-07-18T00:01:54;21.50;79.30
23079;DHT22;11707;50.830;4.364;2022-07-18T00:04:20;21.50;79.50
23079;DHT22;11707;50.830;4.364;2022-07-18T00:06:45;21.40;79.90
23079;DHT22;11707;50.830;4.364;2022-07-18T00:09:11;21.50;79.90
23079;DHT22;11707;50.830;4.364;2022-07-18T00:11:37;21.60;79.80
23079;DHT22;11707;50.830;4.364;2022-07-18T00:14:03;21.50;79.70
23079;DHT22;11707;50.830;4.364;2022-07-18T00:16:29;21.60;79.90
23079;DHT22;11707;50.830;4.364;2022-07-18T00:18:55;21.50;80.40
23079;DHT22;11707;50.830;4.364;2022-07-18T00:21:23;21.30;81.10
23079;DHT22;11707;50.830;4.364;2022-07-18T00:23:48;21.30;81.40
23079;DHT22;11707;50.830;4.364;2022-07-18T00:26:14;21.40;81.50
23079;DHT22;11707;50.830;4.364;2022-07-18T00:28:40;21.30;81.70
23079;DHT22;11707;50.830;4.364;2022-07-18T00:31:05;21.30;82.00
23079;DHT22;11707;50.830;4.364;2022-07-18T00:33:31;21.20;82.40
23079;DHT22;11707;50.830;4.364;2022-07-18T00:35:57;21.30;82.40
23079;DHT22;11707;50.830;4.364;2022-07-18T00:38:22;21.10;83.30
23079;DHT22;11707;50.830;4.364;2022-07-18T00:40:50;21.10;83.50
23079;DHT22;11707;50.830;4.364;2022-07-18T00:43:16;21.10;83.70
23079;DHT22;11707;50.830;4.364;2022-07-18T00:45:46;21.10;83.80
23079;DHT22;11707;50.830;4.364;2022-07-18T00:48:12;20.90;84.40
23079;DHT22;11707;50.830;4.364;2022-07-18T00:50:38;20.90;84.90
23079;DHT22;11707;50.830;4.364;2022-07-18T00:53:05;20.90;84.80
23079;DHT22;11707;50.830;4.364;2022-07-18T00:55:31;21.10;84.80
23079;DHT22;11707;50.830;4.364;2022-07-18T00:57:58;21.10;84.80
23079;DHT22;11707;50.830;4.364;2022-07-18T01:00:24;21.20;84.60
23079;DHT22;11707;50.830;4.364;2022-07-18T01:03:09;21.20;84.70
23079;DHT22;11707;50.830;4.364;2022-07-18T01:05:35;21.20;84.70
23079;DHT22;11707;50.830;4.364;2022-07-18T01:08:01;21.10;85.00
23079;DHT22;11707;50.830;4.364;2022-07-18T01:10:27;21.10;85.50
23079;DHT22;11707;50.830;4.364;2022-07-18T01:12:53;21.10;85.80
23079;DHT22;11707;50.830;4.364;2022-07-18T01:15:19;20.90;86.80
23079;DHT22;11707;50.830;4.364;2022-07-18T01:17:45;20.70;87.80
23079;DHT22;11707;50.830;4.364;2022-07-18T01:20:11;20.90;87.90
23079;DHT22;11707;50.830;4.364;2022-07-18T01:22:36;20.90;88.10
23079;DHT22;11707;50.830;4.364;2022-07-18T01:25:05;21.00;88.80
23079;DHT22;11707;50.830;4.364;2022-07-18T01:27:31;21.10;88.90
23079;DHT22;11707;50.830;4.364;2022-07-18T01:29:57;20.90;89.70
23079;DHT22;11707;50.830;4.364;2022-07-18T01:32:23;20.80;90.40
23079;DHT22;11707;50.830;4.364;2022-07-18T01:34:50;20.60;90.90
23079;DHT22;11707;50.830;4.364;2022-07-18T01:37:16;20.70;91.00
23079;DHT22;11707;50.830;4.364;2022-07-18T01:39:43;20.60;91.40
23079;DHT22;11707;50.830;4.364;2022-07-18T01:42:10;20.60;91.20
23079;DHT22;11707;50.830;4.364;2022-07-18T01:44:37;20.60;91.20
23079;DHT22;11707;50.830;4.364;2022-07-18T01:47:05;20.60;91.40
23079;DHT22;11707;50.830;4.364;2022-07-18T01:49:32;20.70;91.10
23079;DHT22;11707;50.830;4.364;2022-07-18T01:51:59;20.80;90.80
23079;DHT22;11707;50.830;4.364;2022-07-18T01:54:31;20.50;91.10
23079;DHT22;11707;50.830;4.364;2022-07-18T01:56:58;20.60;90.90
23079;DHT22;11707;50.830;4.364;2022-07-18T01:59:24;20.60;90.90
23079;DHT22;11707;50.830;4.364;2022-07-18T02:01:51;20.50;91.20
23079;DHT22;11707;50.830;4.364;2022-07-18T02:04:16;20.40;91.20
23079;DHT22;11707;50.830;4.364;2022-07-18T02:06:43;20.20;91.30
23079;DHT22;11707;50.830;4.364;2022-07-18T02:09:09;20.10;91.50
23079;DHT22;11707;50.830;4.364;2022-07-18T02:11:35;20.10;91.70
23079;DHT22;11707;50.830;4.364;2022-07-18T02:14:02;20.10;91.80
23079;DHT22;11707;50.830;4.364;2022-07-18T02:16:28;20.10;91.80
23079;DHT22;11707;50.830;4.364;2022-07-18T02:18:55;20.10;92.00
23079;DHT22;11707;50.830;4.364;2022-07-18T02:21:20;20.20;91.90
23079;DHT22;11707;50.830;4.364;2022-07-18T02:23:46;20.20;91.90
23079;DHT22;11707;50.830;4.364;2022-07-18T02:26:12;20.10;92.30
23079;DHT22;11707;50.830;4.364;2022-07-18T02:28:38;20.10;92.40
23079;DHT22;11707;50.830;4.364;2022-07-18T02:31:04;20.10;92.60
23079;DHT22;11707;50.830;4.364;2022-07-18T02:33:31;20.00;92.80
23079;DHT22;11707;50.830;4.364;2022-07-18T02:35:57;20.00;93.00
23079;DHT22;11707;50.830;4.364;2022-07-18T02:38:22;20.00;93.20
23079;DHT22;11707;50.830;4.364;2022-07-18T02:40:48;20.00;93.20
23079;DHT22;11707;50.830;4.364;2022-07-18T02:43:14;20.00;93.30
23079;DHT22;11707;50.830;4.364;2022-07-18T02:45:40;20.00;93.30
23079;DHT22;11707;50.830;4.364;2022-07-18T02:48:06;20.00;93.60
23079;DHT22;11707;50.830;4.364;2022-07-18T02:50:31;19.90;94.00
23079;DHT22;11707;50.830;4.364;2022-07-18T02:52:57;20.10;94.00
23079;DHT22;11707;50.830;4.364;2022-07-18T02:55:23;20.10;94.00
23079;DHT22;11707;50.830;4.364;2022-07-18T02:57:49;20.00;94.20
23079;DHT22;11707;50.830;4.364;2022-07-18T03:00:16;19.90;94.40
23079;DHT22;11707;50.830;4.364;2022-07-18T03:02:43;20.10;94.40
23079;DHT22;11707;50.830;4.364;2022-07-18T03:05:09;20.10;94.20
23079;DHT22;11707;50.830;4.364;2022-07-18T03:07:35;20.20;94.20
23079;DHT22;11707;50.830;4.364;2022-07-18T03:10:02;20.10;94.50
23079;DHT22;11707;50.830;4.364;2022-07-18T03:12:28;19.90;94.90
23079;DHT22;11707;50.830;4.364;2022-07-18T03:14:53;19.90;95.10
23079;DHT22;11707;50.830;4.364;2022-07-18T03:17:19;19.70;95.80
23079;DHT22;11707;50.830;4.364;2022-07-18T03:19:45;19.60;96.20
23079;DHT22;11707;50.830;4.364;2022-07-18T03:22:11;19.60;96.60
23079;DHT22;11707;50.830;4.364;2022-07-18T03:24:36;19.40;97.00
23079;DHT22;11707;50.830;4.364;2022-07-18T03:27:02;19.50;97.30
23079;DHT22;11707;50.830;4.364;2022-07-18T03:29:28;19.60;97.10
23079;DHT22;11707;50.830;4.364;2022-07-18T03:31:54;19.70;96.80
23079;DHT22;11707;50.830;4.364;2022-07-18T03:34:20;19.80;96.80
23079;DHT22;11707;50.830;4.364;2022-07-18T03:36:45;19.70;96.90
23079;DHT22;11707;50.830;4.364;2022-07-18T03:39:12;19.70;97.00
23079;DHT22;11707;50.830;4.364;2022-07-18T03:41:38;19.60;97.30
23079;DHT22;11707;50.830;4.364;2022-07-18T03:44:05;19.70;97.00
23079;DHT22;11707;50.830;4.364;2022-07-18T03:46:31;19.70;97.10
23079;DHT22;11707;50.830;4.364;2022-07-18T03:48:57;19.80;97.00
23079;DHT22;11707;50.830;4.364;2022-07-18T03:51:23;19.90;96.70
23079;DHT22;11707;50.830;4.364;2022-07-18T03:53:49;19.90;96.80
23079;DHT22;11707;50.830;4.364;2022-07-18T03:56:15;19.90;96.80
23079;DHT22;11707;50.830;4.364;2022-07-18T03:58:41;20.00;96.60
23079;DHT22;11707;50.830;4.364;2022-07-18T04:01:07;20.00;96.10
23079;DHT22;11707;50.830;4.364;2022-07-18T04:03:33;20.10;96.10
23079;DHT22;11707;50.830;4.364;2022-07-18T04:05:58;20.10;96.00
23079;DHT22;11707;50.830;4.364;2022-07-18T04:08:24;20.20;95.80
23079;DHT22;11707;50.830;4.364;2022-07-18T04:10:51;20.30;95.30
23079;DHT22;11707;50.830;4.364;2022-07-18T04:13:17;20.40;95.20
23079;DHT22;11707;50.830;4.364;2022-07-18T04:15:42;20.50;94.80
23079;DHT22;11707;50.830;4.364;2022-07-18T04:18:09;20.20;95.30
23079;DHT22;11707;50.830;4.364;2022-07-18T04:20:35;20.30;95.40
23079;DHT22;11707;50.830;4.364;2022-07-18T04:23:03;20.10;95.70
23079;DHT22;11707;50.830;4.364;2022-07-18T04:25:34;19.90;96.40
23079;DHT22;11707;50.830;4.364;2022-07-18T04:28:01;20.00;96.40
23079;DHT22;11707;50.830;4.364;2022-07-18T04:30:27;20.00;96.40
23079;DHT22;11707;50.830;4.364;2022-07-18T04:32:54;20.10;96.50
23079;DHT22;11707;50.830;4.364;2022-07-18T04:35:22;20.20;96.20
23079;DHT22;11707;50.830;4.364;2022-07-18T04:37:48;20.20;96.10
23079;DHT22;11707;50.830;4.364;2022-07-18T04:40:15;20.20;96.20
23079;DHT22;11707;50.830;4.364;2022-07-18T04:42:41;20.10;96.30
23079;DHT22;11707;50.830;4.364;2022-07-18T04:45:07;20.20;96.30
23079;DHT22;11707;50.830;4.364;2022-07-18T04:47:33;20.20;96.50
23079;DHT22;11707;50.830;4.364;2022-07-18T04:49:59;20.30;96.60
23079;DHT22;11707;50.830;4.364;2022-07-18T04:52:25;20.40;96.10
23079;DHT22;11707;50.830;4.364;2022-07-18T04:54:51;20.50;96.20
23079;DHT22;11707;50.830;4.364;2022-07-18T04:57:17;20.50;96.10
23079;DHT22;11707;50.830;4.364;2022-07-18T04:59:45;20.50;96.40
23079;DHT22;11707;50.830;4.364;2022-07-18T05:02:11;20.30;96.10
23079;DHT22;11707;50.830;4.364;2022-07-18T05:04:38;20.40;96.10
23079;DHT22;11707;50.830;4.364;2022-07-18T05:07:04;20.50;95.80
23079;DHT22;11707;50.830;4.364;2022-07-18T05:09:30;20.60;96.20
23079;DHT22;11707;50.830;4.364;2022-07-18T05:11:56;20.70;96.00
23079;DHT22;11707;50.830;4.364;2022-07-18T05:14:22;20.80;95.40
23079;DHT22;11707;50.830;4.364;2022-07-18T05:16:48;21.10;95.80
23079;DHT22;11707;50.830;4.364;2022-07-18T05:19:14;21.20;95.50
23079;DHT22;11707;50.830;4.364;2022-07-18T05:21:43;21.40;94.00
23079;DHT22;11707;50.830;4.364;2022-07-18T05:24:09;21.60;93.00
23079;DHT22;11707;50.830;4.364;2022-07-18T05:26:35;21.70;92.40
23079;DHT22;11707;50.830;4.364;2022-07-18T05:29:01;21.90;91.90
23079;DHT22;11707;50.830;4.364;2022-07-18T05:31:27;22.00;91.90
23079;DHT22;11707;50.830;4.364;2022-07-18T05:33:52;21.90;91.80
23079;DHT22;11707;50.830;4.364;2022-07-18T05:36:18;21.80;92.20
23079;DHT22;11707;50.830;4.364;2022-07-18T05:38:44;21.90;92.50
23079;DHT22;11707;50.830;4.364;2022-07-18T05:41:10;21.90;92.10
23079;DHT22;11707;50.830;4.364;2022-07-18T05:43:35;22.20;91.80
23079;DHT22;11707;50.830;4.364;2022-07-18T05:46:01;22.20;91.50
23079;DHT22;11707;50.830;4.364;2022-07-18T05:48:27;22.40;91.20
23079;DHT22;11707;50.830;4.364;2022-07-18T05:50:53;22.30;91.30
23079;DHT22;11707;50.830;4.364;2022-07-18T05:53:18;22.40;91.10
23079;DHT22;11707;50.830;4.364;2022-07-18T05:55:44;22.40;91.10
23079;DHT22;11707;50.830;4.364;2022-07-18T05:58:10;22.50;91.20
23079;DHT22;11707;50.830;4.364;2022-07-18T06:00:36;22.50;91.50
23079;DHT22;11707;50.830;4.364;2022-07-18T06:03:01;22.70;91.00
23079;DHT22;11707;50.830;4.364;2022-07-18T06:05:27;22.90;90.50
23079;DHT22;11707;50.830;4.364;2022-07-18T06:07:54;23.00;89.80
23079;DHT22;11707;50.830;4.364;2022-07-18T06:10:21;23.20;90.10
23079;DHT22;11707;50.830;4.364;2022-07-18T06:12:47;23.30;88.60
23079;DHT22;11707;50.830;4.364;2022-07-18T06:15:15;23.40;88.50
23079;DHT22;11707;50.830;4.364;2022-07-18T06:17:41;23.40;87.90
23079;DHT22;11707;50.830;4.364;2022-07-18T06:20:07;23.50;87.30
23079;DHT22;11707;50.830;4.364;2022-07-18T06:22:34;23.50;86.80
23079;DHT22;11707;50.830;4.364;2022-07-18T06:25:01;23.60;86.00
23079;DHT22;11707;50.830;4.364;2022-07-18T06:27:27;23.60;85.50
23079;DHT22;11707;50.830;4.364;2022-07-18T06:29:54;23.60;85.70
23079;DHT22;11707;50.830;4.364;2022-07-18T06:32:20;23.50;86.50
23079;DHT22;11707;50.830;4.364;2022-07-18T06:34:45;23.40;86.50
23079;DHT22;11707;50.830;4.364;2022-07-18T06:37:11;23.60;86.50
23079;DHT22;11707;50.830;4.364;2022-07-18T06:39:37;23.70;86.50
23079;DHT22;11707;50.830;4.364;2022-07-18T06:42:03;23.80;86.50
23079;DHT22;11707;50.830;4.364;2022-07-18T06:44:28;23.90;86.30
23079;DHT22;11707;50.830;4.364;2022-07-18T06:46:55;24.00;85.40
23079;DHT22;11707;50.830;4.364;2022-07-18T06:49:23;24.00;85.50
23079;DHT22;11707;50.830;4.364;2022-07-18T06:51:51;24.10;84.70
23079;DHT22;11707;50.830;4.364;2022-07-18T06:54:16;24.30;84.60
23079;DHT22;11707;50.830;4.364;2022-07-18T06:56:42;24.30;84.50
23079;DHT22;11707;50.830;4.364;2022-07-18T06:59:08;24.30;85.20
23079;DHT22;11707;50.830;4.364;2022-07-18T07:01:34;24.40;84.50
23079;DHT22;11707;50.830;4.364;2022-07-18T07:04:00;24.50;83.60
23079;DHT22;11707;50.830;4.364;2022-07-18T07:06:25;24.50;84.00
23079;DHT22;11707;50.830;4.364;2022-07-18T07:08:51;24.60;83.40
23079;DHT22;11707;50.830;4.364;2022-07-18T07:11:17;24.70;83.90
23079;DHT22;11707;50.830;4.364;2022-07-18T07:13:42;24.80;84.10
23079;DHT22;11707;50.830;4.364;2022-07-18T07:16:08;24.90;83.70
23079;DHT22;11707;50.830;4.364;2022-07-18T07:18:34;25.00;83.40
23079;DHT22;11707;50.830;4.364;2022-07-18T07:20:59;25.10;83.10
23079;DHT22;11707;50.830;4.364;2022-07-18T07:23:26;25.30;82.40
23079;DHT22;11707;50.830;4.364;2022-07-18T07:25:51;25.40;82.20
23079;DHT22;11707;50.830;4.364;2022-07-18T07:28:17;25.50;81.80
23079;DHT22;11707;50.830;4.364;2022-07-18T07:30:43;25.70;81.70
23079;DHT22;11707;50.830;4.364;2022-07-18T07:33:09;25.70;80.70
23079;DHT22;11707;50.830;4.364;2022-07-18T07:35:35;25.90;80.00
23079;DHT22;11707;50.830;4.364;2022-07-18T07:38:01;25.90;79.40
23079;DHT22;11707;50.830;4.364;2022-07-18T07:40:28;25.90;78.40
23079;DHT22;11707;50.830;4.364;2022-07-18T07:43:11;26.10;78.90
23079;DHT22;11707;50.830;4.364;2022-07-18T07:45:37;26.30;78.20
23079;DHT22;11707;50.830;4.364;2022-07-18T07:48:04;26.40;77.90
23079;DHT22;11707;50.830;4.364;2022-07-18T07:50:30;26.20;78.10
23079;DHT22;11707;50.830;4.364;2022-07-18T07:52:57;26.30;77.40
23079;DHT22;11707;50.830;4.364;2022-07-18T07:55:23;26.20;77.70
23079;DHT22;11707;50.830;4.364;2022-07-18T07:57:49;26.40;77.30
23079;DHT22;11707;50.830;4.364;2022-07-18T08:00:15;26.60;75.60
23079;DHT22;11707;50.830;4.364;2022-07-18T08:03:01;26.70;75.80
23079;DHT22;11707;50.830;4.364;2022-07-18T08:05:34;26.80;75.50
23079;DHT22;11707;50.830;4.364;2022-07-18T08:08:00;26.80;75.10
23079;DHT22;11707;50.830;4.364;2022-07-18T08:10:28;26.90;75.40
23079;DHT22;11707;50.830;4.364;2022-07-18T08:12:54;26.90;74.80
23079;DHT22;11707;50.830;4.364;2022-07-18T08:15:20;26.90;74.20
23079;DHT22;11707;50.830;4.364;2022-07-18T08:17:46;26.90;74.70
23079;DHT22;11707;50.830;4.364;2022-07-18T08:20:12;26.50;75.80
23079;DHT22;11707;50.830;4.364;2022-07-18T08:23:02;26.50;76.50
23079;DHT22;11707;50.830;4.364;2022-07-18T08:25:29;26.60;77.10
23079;DHT22;11707;50.830;4.364;2022-07-18T08:27:56;26.90;76.90
23079;DHT22;11707;50.830;4.364;2022-07-18T08:30:21;27.10;76.30
23079;DHT22;11707;50.830;4.364;2022-07-18T08:32:47;27.00;76.00
23079;DHT22;11707;50.830;4.364;2022-07-18T08:35:13;27.10;75.40
23079;DHT22;11707;50.830;4.364;2022-07-18T08:37:39;27.20;75.20
23079;DHT22;11707;50.830;4.364;2022-07-18T08:40:06;27.20;74.20
23079;DHT22;11707;50.830;4.364;2022-07-18T08:42:33;27.50;71.20
23079;DHT22;11707;50.830;4.364;2022-07-18T08:45:00;27.70;70.10
23079;DHT22;11707;50.830;4.364;2022-07-18T08:47:28;27.80;69.70
23079;DHT22;11707;50.830;4.364;2022-07-18T08:49:58;27.90;70.50
23079;DHT22;11707;50.830;4.364;2022-07-18T08:52:25;28.00;70.20
23079;DHT22;11707;50.830;4.364;2022-07-18T08:54:51;27.90;69.80
23079;DHT22;11707;50.830;4.364;2022-07-18T08:57:17;28.10;70.00
23079;DHT22;11707;50.830;4.364;2022-07-18T08:59:43;28.30;68.80
23079;DHT22;11707;50.830;4.364;2022-07-18T09:02:09;28.10;68.10
23079;DHT22;11707;50.830;4.364;2022-07-18T09:04:42;27.90;69.00
23079;DHT22;11707;50.830;4.364;2022-07-18T09:07:10;28.10;68.80
23079;DHT22;11707;50.830;4.364;2022-07-18T09:09:36;28.40;68.30
23079;DHT22;11707;50.830;4.364;2022-07-18T09:12:08;28.40;67.50
23079;DHT22;11707;50.830;4.364;2022-07-18T09:14:43;28.50;66.80
23079;DHT22;11707;50.830;4.364;2022-07-18T09:20:07;28.80;64.80
23079;DHT22;11707;50.830;4.364;2022-07-18T09:22:42;28.70;65.20
23079;DHT22;11707;50.830;4.364;2022-07-18T09:25:10;28.80;64.80
23079;DHT22;11707;50.830;4.364;2022-07-18T09:27:52;28.90;64.10
23079;DHT22;11707;50.830;4.364;2022-07-18T09:32:53;29.10;61.90
23079;DHT22;11707;50.830;4.364;2022-07-18T09:35:23;29.10;62.30
23079;DHT22;11707;50.830;4.364;2022-07-18T09:40:22;28.90;62.20
23079;DHT22;11707;50.830;4.364;2022-07-18T09:42:53;29.10;61.70
23079;DHT22;11707;50.830;4.364;2022-07-18T09:45:28;29.20;61.40
23079;DHT22;11707;50.830;4.364;2022-07-18T09:47:57;29.30;61.30
23079;DHT22;11707;50.830;4.364;2022-07-18T09:53:01;29.30;60.80
23079;DHT22;11707;50.830;4.364;2022-07-18T09:55:28;29.40;60.40
23079;DHT22;11707;50.830;4.364;2022-07-18T09:58:00;29.40;60.20
23079;DHT22;11707;50.830;4.364;2022-07-18T10:00:31;29.60;60.00
23079;DHT22;11707;50.830;4.364;2022-07-18T10:02:59;29.70;59.20
23079;DHT22;11707;50.830;4.364;2022-07-18T10:05:34;29.70;58.60
23079;DHT22;11707;50.830;4.364;2022-07-18T10:08:02;29.50;58.20
23079;DHT22;11707;50.830;4.364;2022-07-18T10:10:29;29.50;58.50
23079;DHT22;11707;50.830;4.364;2022-07-18T10:12:56;29.40;58.50
23079;DHT22;11707;50.830;4.364;2022-07-18T10:15:26;29.60;57.20
23079;DHT22;11707;50.830;4.364;2022-07-18T10:17:52;29.70;55.90
23079;DHT22;11707;50.830;4.364;2022-07-18T10:20:25;29.90;55.60
23079;DHT22;11707;50.830;4.364;2022-07-18T10:22:53;29.90;54.40
23079;DHT22;11707;50.830;4.364;2022-07-18T10:25:21;30.00;55.10
23079;DHT22;11707;50.830;4.364;2022-07-18T10:28:05;30.20;55.00
23079;DHT22;11707;50.830;4.364;2022-07-18T10:32:57;30.20;54.50
23079;DHT22;11707;50.830;4.364;2022-07-18T10:41:32;30.20;54.30
23079;DHT22;11707;50.830;4.364;2022-07-18T10:43:58;30.30;54.40
23079;DHT22;11707;50.830;4.364;2022-07-18T10:46:24;30.30;54.30
23079;DHT22;11707;50.830;4.364;2022-07-18T10:48:52;30.40;53.90
23079;DHT22;11707;50.830;4.364;2022-07-18T10:51:18;30.60;53.20
23079;DHT22;11707;50.830;4.364;2022-07-18T10:56:20;30.40;53.50
23079;DHT22;11707;50.830;4.364;2022-07-18T10:58:46;30.40;53.00
23079;DHT22;11707;50.830;4.364;2022-07-18T11:01:16;30.40;53.00
23079;DHT22;11707;50.830;4.364;2022-07-18T11:03:42;30.80;52.40
23079;DHT22;11707;50.830;4.364;2022-07-18T11:06:08;31.00;52.80
23079;DHT22;11707;50.830;4.364;2022-07-18T11:08:34;30.90;51.80
23079;DHT22;11707;50.830;4.364;2022-07-18T11:11:03;30.80;52.30
23079;DHT22;11707;50.830;4.364;2022-07-18T11:13:41;30.90;51.70
23079;DHT22;11707;50.830;4.364;2022-07-18T11:16:25;30.90;51.50
23079;DHT22;11707;50.830;4.364;2022-07-18T11:21:17;30.90;50.10
23079;DHT22;11707;50.830;4.364;2022-07-18T11:23:45;30.70;50.40
23079;DHT22;11707;50.830;4.364;2022-07-18T11:26:20;31.00;50.20
23079;DHT22;11707;50.830;4.364;2022-07-18T11:28:47;31.20;49.50
23079;DHT22;11707;50.830;4.364;2022-07-18T11:31:16;31.40;48.80
23079;DHT22;11707;50.830;4.364;2022-07-18T11:33:46;31.50;48.10
23079;DHT22;11707;50.830;4.364;2022-07-18T11:36:17;31.60;47.80
23079;DHT22;11707;50.830;4.364;2022-07-18T11:38:48;31.30;47.30
23079;DHT22;11707;50.830;4.364;2022-07-18T11:41:14;31.30;47.30
23079;DHT22;11707;50.830;4.364;2022-07-18T11:43:42;31.50;47.40
23079;DHT22;11707;50.830;4.364;2022-07-18T11:46:11;31.70;47.00
23079;DHT22;11707;50.830;4.364;2022-07-18T11:48:38;31.90;47.10
23079;DHT22;11707;50.830;4.364;2022-07-18T11:51:15;31.90;46.90
23079;DHT22;11707;50.830;4.364;2022-07-18T11:53:44;31.90;46.80
23079;DHT22;11707;50.830;4.364;2022-07-18T11:56:10;32.00;47.30
23079;DHT22;11707;50.830;4.364;2022-07-18T11:58:37;32.20;45.90
23079;DHT22;11707;50.830;4.364;2022-07-18T12:01:04;32.00;45.70
23079;DHT22;11707;50.830;4.364;2022-07-18T12:03:31;31.90;46.30
23079;DHT22;11707;50.830;4.364;2022-07-18T12:05:59;31.90;46.10
23079;DHT22;11707;50.830;4.364;2022-07-18T12:08:39;31.80;45.60
23079;DHT22;11707;50.830;4.364;2022-07-18T12:14:00;32.00;43.70
23079;DHT22;11707;50.830;4.364;2022-07-18T12:21:47;32.50;44.00
23079;DHT22;11707;50.830;4.364;2022-07-18T12:24:39;32.50;43.80
23079;DHT22;11707;50.830;4.364;2022-07-18T12:33:08;32.70;43.40
23079;DHT22;11707;50.830;4.364;2022-07-18T12:35:38;32.70;43.20
23079;DHT22;11707;50.830;4.364;2022-07-18T12:38:17;32.80;42.70
23079;DHT22;11707;50.830;4.364;2022-07-18T12:40:47;32.80;42.50
23079;DHT22;11707;50.830;4.364;2022-07-18T12:45:52;32.80;42.00
23079;DHT22;11707;50.830;4.364;2022-07-18T12:48:18;32.70;42.20
23079;DHT22;11707;50.830;4.364;2022-07-18T12:50:44;32.70;42.00
23079;DHT22;11707;50.830;4.364;2022-07-18T12:53:10;33.00;42.50
23079;DHT22;11707;50.830;4.364;2022-07-18T12:55:37;34.00;41.70
23079;DHT22;11707;50.830;4.364;2022-07-18T12:58:04;35.40;40.50
23079;DHT22;11707;50.830;4.364;2022-07-18T13:00:31;36.70;38.80
23079;DHT22;11707;50.830;4.364;2022-07-18T13:02:58;37.70;36.20
23079;DHT22;11707;50.830;4.364;2022-07-18T13:05:27;37.70;34.50
23079;DHT22;11707;50.830;4.364;2022-07-18T13:07:53;38.10;35.80
23079;DHT22;11707;50.830;4.364;2022-07-18T13:10:19;38.60;35.50
23079;DHT22;11707;50.830;4.364;2022-07-18T13:12:45;40.10;33.80
23079;DHT22;11707;50.830;4.364;2022-07-18T13:15:10;39.40;33.80
23079;DHT22;11707;50.830;4.364;2022-07-18T13:17:36;39.80;33.80
23079;DHT22;11707;50.830;4.364;2022-07-18T13:20:02;40.20;34.20
23079;DHT22;11707;50.830;4.364;2022-07-18T13:22:29;41.00;33.20
23079;DHT22;11707;50.830;4.364;2022-07-18T13:24:57;40.50;32.30
23079;DHT22;11707;50.830;4.364;2022-07-18T13:27:24;39.80;32.70
23079;DHT22;11707;50.830;4.364;2022-07-18T13:29:49;40.10;32.80
23079;DHT22;11707;50.830;4.364;2022-07-18T13:32:15;40.80;32.30
23079;DHT22;11707;50.830;4.364;2022-07-18T13:34:41;40.90;31.20
23079;DHT22;11707;50.830;4.364;2022-07-18T13:37:06;41.70;30.20
23079;DHT22;11707;50.830;4.364;2022-07-18T13:39:32;41.90;29.60
23079;DHT22;11707;50.830;4.364;2022-07-18T13:41:58;41.70;30.00
23079;DHT22;11707;50.830;4.364;2022-07-18T13:44:27;42.30;29.40
23079;DHT22;11707;50.830;4.364;2022-07-18T13:46:53;43.10;29.20
23079;DHT22;11707;50.830;4.364;2022-07-18T13:49:19;43.30;28.40
23079;DHT22;11707;50.830;4.364;2022-07-18T13:51:44;43.50;28.30
23079;DHT22;11707;50.830;4.364;2022-07-18T13:54:10;43.40;28.20
23079;DHT22;11707;50.830;4.364;2022-07-18T13:56:36;42.40;29.00
23079;DHT22;11707;50.830;4.364;2022-07-18T13:59:02;41.50;29.70
23079;DHT22;11707;50.830;4.364;2022-07-18T14:01:27;42.10;29.50
23079;DHT22;11707;50.830;4.364;2022-07-18T14:03:53;41.40;29.90
23079;DHT22;11707;50.830;4.364;2022-07-18T14:06:19;41.60;29.80
23079;DHT22;11707;50.830;4.364;2022-07-18T14:08:45;42.00;29.30
23079;DHT22;11707;50.830;4.364;2022-07-18T14:11:10;41.70;30.00
23079;DHT22;11707;50.830;4.364;2022-07-18T14:13:36;42.40;29.40
23079;DHT22;11707;50.830;4.364;2022-07-18T14:16:02;41.80;29.00
23079;DHT22;11707;50.830;4.364;2022-07-18T14:18:28;40.90;29.30
23079;DHT22;11707;50.830;4.364;2022-07-18T14:20:54;40.50;29.80
23079;DHT22;11707;50.830;4.364;2022-07-18T14:23:20;41.30;30.00
23079;DHT22;11707;50.830;4.364;2022-07-18T14:25:45;42.90;29.20
23079;DHT22;11707;50.830;4.364;2022-07-18T14:28:12;43.60;28.40
23079;DHT22;11707;50.830;4.364;2022-07-18T14:30:39;43.30;28.30
23079;DHT22;11707;50.830;4.364;2022-07-18T14:33:04;42.00;29.30
23079;DHT22;11707;50.830;4.364;2022-07-18T14:35:30;42.20;28.60
23079;DHT22;11707;50.830;4.364;2022-07-18T14:37:56;42.90;28.70
23079;DHT22;11707;50.830;4.364;2022-07-18T14:40:22;43.80;28.20
23079;DHT22;11707;50.830;4.364;2022-07-18T14:42:48;44.70;28.00
23079;DHT22;11707;50.830;4.364;2022-07-18T14:45:14;43.20;28.70
23079;DHT22;11707;50.830;4.364;2022-07-18T14:47:40;42.40;28.60
23079;DHT22;11707;50.830;4.364;2022-07-18T14:50:07;42.10;28.80
23079;DHT22;11707;50.830;4.364;2022-07-18T14:52:33;42.70;29.00
23079;DHT22;11707;50.830;4.364;2022-07-18T14:54:58;43.40;27.70
23079;DHT22;11707;50.830;4.364;2022-07-18T14:57:24;42.80;28.00
23079;DHT22;11707;50.830;4.364;2022-07-18T14:59:49;42.70;28.00
23079;DHT22;11707;50.830;4.364;2022-07-18T15:02:15;43.50;27.80
23079;DHT22;11707;50.830;4.364;2022-07-18T15:04:42;43.80;27.70
23079;DHT22;11707;50.830;4.364;2022-07-18T15:07:08;43.60;27.40
23079;DHT22;11707;50.830;4.364;2022-07-18T15:09:33;43.80;27.40
23079;DHT22;11707;50.830;4.364;2022-07-18T15:11:59;44.30;27.20
23079;DHT22;11707;50.830;4.364;2022-07-18T15:14:25;41.10;28.50
23079;DHT22;11707;50.830;4.364;2022-07-18T15:16:53;42.00;28.50
23079;DHT22;11707;50.830;4.364;2022-07-18T15:19:18;42.30;28.40
23079;DHT22;11707;50.830;4.364;2022-07-18T15:21:44;42.20;28.50
23079;DHT22;11707;50.830;4.364;2022-07-18T15:24:10;41.90;28.30
23079;DHT22;11707;50.830;4.364;2022-07-18T15:26:35;42.70;28.20
23079;DHT22;11707;50.830;4.364;2022-07-18T15:29:01;43.20;27.60
23079;DHT22;11707;50.830;4.364;2022-07-18T15:31:27;41.90;28.10
23079;DHT22;11707;50.830;4.364;2022-07-18T15:33:53;40.20;29.10
23079;DHT22;11707;50.830;4.364;2022-07-18T15:36:19;40.00;29.60
23079;DHT22;11707;50.830;4.364;2022-07-18T15:38:44;39.40;29.70
23079;DHT22;11707;50.830;4.364;2022-07-18T15:41:11;39.10;30.40
23079;DHT22;11707;50.830;4.364;2022-07-18T15:43:39;37.70;30.50
23079;DHT22;11707;50.830;4.364;2022-07-18T15:46:05;37.20;31.80
23079;DHT22;11707;50.830;4.364;2022-07-18T15:48:31;37.30;31.50
23079;DHT22;11707;50.830;4.364;2022-07-18T15:50:57;36.80;32.10
23079;DHT22;11707;50.830;4.364;2022-07-18T15:53:24;36.80;32.10
23079;DHT22;11707;50.830;4.364;2022-07-18T15:55:49;36.40;32.10
23079;DHT22;11707;50.830;4.364;2022-07-18T15:58:15;36.40;32.40
23079;DHT22;11707;50.830;4.364;2022-07-18T16:00:41;36.20;32.30
23079;DHT22;11707;50.830;4.364;2022-07-18T16:03:07;36.00;32.50
23079;DHT22;11707;50.830;4.364;2022-07-18T16:05:32;36.00;33.20
23079;DHT22;11707;50.830;4.364;2022-07-18T16:07:58;35.70;33.70
23079;DHT22;11707;50.830;4.364;2022-07-18T16:10:28;35.20;34.40